Time;durP1;ratioP1;P1;durP2;ratioP2;P2;SDS_P1;SDS_P2;PMS_P1;PMS_P2;Temp;Humidity;BMP_temperature;BMP_pressure;BME280_temperature;BME280_humidity;BME280_pressure;Samples;Min_cycle;Max_cycle;Signal;HPM_P1;HPM_P2
2024/04/02 00:01:09;;;;;;;17.35;7.22;;;12.70;83.60;;;;;;4987280;28;114818;-50
2024/04/02 00:03:35;;;;;;;17.95;7.70;;;12.40;84.00;;;;;;4987450;28;112627;-49
2024/04/02 00:06:01;;;;;;;18.67;7.97;;;12.40;84.50;;;;;;4988039;28;112672;-49
2024/04/02 00:08:30;;;;;;;18.70;8.38;;;12.40;84.00;;;;;;4987677;28;112729;-49
2024/04/02 00:11:03;;;;;;;18.45;8.10;;;12.40;83.80;;;;;;4986990;28;115067;-49
2024/04/02 00:13:30;;;;;;;14.75;7.45;;;12.40;84.30;;;;;;4987140;28;113739;-50
2024/04/02 00:15:56;;;;;;;14.00;7.40;;;12.50;83.90;;;;;;4988348;28;112566;-49
2024/04/02 00:18:21;;;;;;;12.40;7.05;;;12.60;83.80;;;;;;4988468;28;113131;-49
2024/04/02 00:20:47;;;;;;;19.05;7.63;;;12.50;83.40;;;;;;4987494;28;113424;-49
2024/04/02 00:23:13;;;;;;;17.45;7.95;;;12.40;83.70;;;;;;4986999;28;114046;-50
2024/04/02 00:25:39;;;;;;;12.30;6.82;;;12.40;83.00;;;;;;4981894;28;112590;-49
2024/04/02 00:28:05;;;;;;;11.30;6.93;;;12.40;83.20;;;;;;4979569;28;112919;-49
2024/04/02 00:30:32;;;;;;;9.77;6.38;;;12.40;83.00;;;;;;4986845;28;114269;-49
2024/04/02 00:32:58;;;;;;;13.07;6.90;;;12.40;82.80;;;;;;4986815;28;113841;-49
2024/04/02 00:35:24;;;;;;;13.65;6.72;;;12.40;82.90;;;;;;4987869;28;112689;-49
2024/04/02 00:37:51;;;;;;;30.55;15.73;;;12.50;82.70;;;;;;4988285;28;112892;-49
2024/04/02 00:40:18;;;;;;;47.40;25.05;;;12.30;82.80;;;;;;4986056;28;113305;-49
2024/04/02 00:42:45;;;;;;;30.38;15.68;;;12.00;83.40;;;;;;4986051;28;112757;-50
2024/04/02 00:45:12;;;;;;;16.88;9.90;;;12.00;84.30;;;;;;4987002;28;112937;-49
2024/04/02 00:47:39;;;;;;;25.92;12.68;;;12.20;84.00;;;;;;4988045;28;112963;-49
2024/04/02 00:50:06;;;;;;;19.83;10.30;;;12.20;83.60;;;;;;4986030;28;113241;-49
2024/04/02 00:52:32;;;;;;;19.02;9.82;;;12.20;83.40;;;;;;4985626;28;115617;-49
2024/04/02 00:54:59;;;;;;;47.05;25.42;;;12.30;83.10;;;;;;4986588;28;112532;-49
2024/04/02 00:57:25;;;;;;;53.28;29.00;;;12.00;83.30;;;;;;4986795;28;112715;-49
2024/04/02 00:59:52;;;;;;;36.53;20.67;;;11.80;84.20;;;;;;4985763;28;113256;-49
2024/04/02 01:02:18;;;;;;;22.35;13.45;;;11.70;84.80;;;;;;4986045;28;113284;-49
2024/04/02 01:04:45;;;;;;;27.05;14.05;;;11.90;84.50;;;;;;4986999;28;112586;-49
2024/04/02 01:07:12;;;;;;;19.42;12.68;;;11.90;83.90;;;;;;4986781;28;112717;-49
2024/04/02 01:09:38;;;;;;;24.15;12.75;;;11.90;83.90;;;;;;4985862;28;113219;-49
2024/04/02 01:12:07;;;;;;;21.65;11.30;;;11.90;84.10;;;;;;4985835;28;112697;-49
2024/04/02 01:14:39;;;;;;;21.52;12.15;;;12.00;83.80;;;;;;4985179;28;112663;-49
2024/04/02 01:17:05;;;;;;;19.85;10.88;;;11.90;83.50;;;;;;4986852;28;112909;-49
2024/04/02 01:19:31;;;;;;;21.33;11.98;;;11.90;83.40;;;;;;4988466;28;113243;-49
2024/04/02 01:21:58;;;;;;;18.25;11.82;;;11.90;83.30;;;;;;4989238;28;112612;-49
2024/04/02 01:24:24;;;;;;;22.48;12.88;;;11.90;83.10;;;;;;4989890;28;112944;-49
2024/04/02 01:26:49;;;;;;;21.20;11.25;;;12.00;83.10;;;;;;4976025;28;113379;-49
2024/04/02 01:29:15;;;;;;;16.05;11.25;;;12.00;82.70;;;;;;4989124;28;113302;-49
2024/04/02 01:31:41;;;;;;;22.02;13.13;;;11.70;82.80;;;;;;4988695;28;113878;-49
2024/04/02 01:34:07;;;;;;;21.98;13.43;;;11.60;83.50;;;;;;4989918;28;112463;-49
2024/04/02 01:36:33;;;;;;;19.25;12.48;;;11.60;83.90;;;;;;4990144;28;112668;-49
2024/04/02 01:38:59;;;;;;;21.73;12.07;;;11.60;83.60;;;;;;4988722;28;113132;-51
2024/04/02 01:41:24;;;;;;;24.23;11.93;;;11.60;83.40;;;;;;4988715;28;114014;-49
2024/04/02 01:43:50;;;;;;;20.60;11.52;;;11.50;82.90;;;;;;4989899;28;112952;-49
2024/04/02 01:46:16;;;;;;;15.68;9.60;;;11.50;82.90;;;;;;4989489;28;112849;-49
2024/04/02 01:48:42;;;;;;;20.73;9.98;;;11.40;82.80;;;;;;4986034;28;114420;-49
2024/04/02 01:51:08;;;;;;;16.30;10.07;;;11.50;82.50;;;;;;4988520;28;113045;-49
2024/04/02 01:53:33;;;;;;;16.08;10.07;;;11.50;82.30;;;;;;4989254;28;113218;-49
2024/04/02 01:56:00;;;;;;;17.27;8.57;;;11.50;82.30;;;;;;4989179;28;112811;-50
2024/04/02 01:58:26;;;;;;;15.05;8.75;;;11.50;82.10;;;;;;4988942;28;113187;-49
2024/04/02 02:00:51;;;;;;;18.83;8.15;;;11.50;82.00;;;;;;4987335;28;113797;-49
2024/04/02 02:03:17;;;;;;;13.40;8.30;;;11.30;82.40;;;;;;4988737;28;113308;-49
2024/04/02 02:05:46;;;;;;;11.98;8.40;;;11.30;82.20;;;;;;4989068;28;112761;-49
2024/04/02 02:08:12;;;;;;;14.50;7.90;;;11.40;82.20;;;;;;4987994;28;114564;-51
2024/04/02 02:10:38;;;;;;;16.20;7.90;;;11.40;82.20;;;;;;4987730;28;114147;-49
2024/04/02 02:13:05;;;;;;;12.02;7.53;;;11.30;82.50;;;;;;4988669;28;112702;-49
2024/04/02 02:15:31;;;;;;;16.25;7.63;;;11.30;82.20;;;;;;4989122;28;112927;-49
2024/04/02 02:17:57;;;;;;;12.73;7.55;;;11.30;82.20;;;;;;4985305;28;113580;-49
2024/04/02 02:20:22;;;;;;;11.25;7.35;;;11.20;82.20;;;;;;4988087;28;112832;-50
2024/04/02 02:22:48;;;;;;;12.63;7.70;;;11.10;82.70;;;;;;4982337;28;112839;-49
2024/04/02 02:25:14;;;;;;;15.65;8.32;;;11.10;82.80;;;;;;4970366;28;112696;-49
2024/04/02 02:27:40;;;;;;;8.77;6.88;;;11.10;82.50;;;;;;4980626;28;114492;-50
2024/04/02 02:30:07;;;;;;;9.70;7.35;;;11.00;82.80;;;;;;4980118;28;113747;-50
2024/04/02 02:32:33;;;;;;;8.40;6.18;;;11.00;83.00;;;;;;4988346;28;112614;-49
2024/04/02 02:34:59;;;;;;;13.55;7.43;;;11.00;82.70;;;;;;4982178;28;112778;-49
2024/04/02 02:37:25;;;;;;;13.15;7.32;;;11.00;82.60;;;;;;4967591;28;113224;-50
2024/04/02 02:39:51;;;;;;;20.55;6.00;;;10.90;83.10;;;;;;4967288;28;114360;-49
2024/04/02 02:42:17;;;;;;;9.30;5.55;;;10.80;82.60;;;;;;4978254;28;112610;-49
2024/04/02 02:44:44;;;;;;;10.32;8.05;;;10.80;82.40;;;;;;4969134;28;112643;-50
2024/04/02 02:47:09;;;;;;;12.15;9.13;;;10.70;82.60;;;;;;4975980;28;113258;-49
2024/04/02 02:49:35;;;;;;;11.02;8.27;;;10.70;83.40;;;;;;4967846;28;112946;-49
2024/04/02 02:52:01;;;;;;;12.70;7.72;;;10.70;83.80;;;;;;4979315;28;112784;-49
2024/04/02 02:54:26;;;;;;;16.17;8.80;;;10.70;83.40;;;;;;4974038;28;112766;-49
2024/04/02 02:56:52;;;;;;;12.25;9.15;;;10.80;83.20;;;;;;4987279;28;114803;-49
2024/04/02 02:59:18;;;;;;;13.40;8.95;;;10.80;83.20;;;;;;4986846;28;114434;-49
2024/04/02 03:01:44;;;;;;;21.42;9.43;;;10.80;82.90;;;;;;4988316;28;112626;-52
2024/04/02 03:04:09;;;;;;;65.25;9.15;;;10.80;82.70;;;;;;4981301;28;112736;-53
2024/04/02 03:06:36;;;;;;;60.08;9.35;;;10.80;81.80;;;;;;4973140;28;113480;-50
2024/04/02 03:09:02;;;;;;;57.30;9.10;;;10.60;81.80;;;;;;4982078;28;114085;-51
2024/04/02 03:11:27;;;;;;;96.30;10.30;;;10.40;83.10;;;;;;4981351;28;112592;-49
2024/04/02 03:13:53;;;;;;;50.72;13.20;;;10.20;83.80;;;;;;5010409;27;112991;-49
2024/04/02 03:16:22;;;;;;;59.03;12.60;;;10.10;84.30;;;;;;4979733;28;114751;-51
2024/04/02 03:18:47;;;;;;;91.05;13.65;;;10.20;84.50;;;;;;4978680;28;113869;-50
2024/04/02 03:21:16;;;;;;;124.28;14.82;;;10.20;85.20;;;;;;4969872;28;112745;-50
2024/04/02 03:23:42;;;;;;;250.70;15.27;;;10.20;85.40;;;;;;4981397;28;112848;-50
2024/04/02 03:26:08;;;;;;;126.68;12.30;;;10.20;85.30;;;;;;4980760;28;113407;-49
2024/04/02 03:28:34;;;;;;;119.40;12.90;;;10.20;85.80;;;;;;4969358;28;113067;-50
2024/04/02 03:31:00;;;;;;;110.50;14.23;;;10.40;85.60;;;;;;4989130;28;113176;-49
2024/04/02 03:33:28;;;;;;;239.48;18.50;;;10.40;85.60;;;;;;4979358;28;112698;-49
2024/04/02 03:35:54;;;;;;;269.98;19.38;;;10.40;86.30;;;;;;4976316;28;115325;-49
2024/04/02 03:38:20;;;;;;;279.85;18.83;;;10.30;86.60;;;;;;4981643;28;114294;-49
2024/04/02 03:40:47;;;;;;;240.50;18.20;;;10.30;86.70;;;;;;4980981;28;113071;-48
2024/04/02 03:43:12;;;;;;;149.45;18.05;;;10.30;87.30;;;;;;4982687;28;112782;-50
2024/04/02 03:45:42;;;;;;;150.88;19.70;;;10.10;87.60;;;;;;4979472;28;113777;-49
2024/04/02 03:48:09;;;;;;;97.28;17.20;;;9.90;88.20;;;;;;4983511;28;112779;-48
2024/04/02 03:50:36;;;;;;;38.85;12.55;;;10.00;87.80;;;;;;4983315;28;112495;-48
2024/04/02 03:53:03;;;;;;;47.95;12.40;;;9.90;86.90;;;;;;4966830;28;112979;-49
2024/04/02 03:55:47;;;;;;;20.33;9.88;;;9.90;86.60;;;;;;4966011;28;114037;-49
2024/04/02 03:58:12;;;;;;;15.18;9.65;;;10.00;85.90;;;;;;4966848;28;112880;-49
2024/04/02 04:00:42;;;;;;;21.35;9.05;;;10.10;84.90;;;;;;4967088;28;112663;-49
2024/04/02 04:03:09;;;;;;;13.25;8.77;;;10.20;84.10;;;;;;4967717;28;113220;-49
2024/04/02 04:05:35;;;;;;;8.77;7.78;;;10.30;83.60;;;;;;4966560;28;113257;-48
2024/04/02 04:08:00;;;;;;;9.60;7.15;;;10.20;83.50;;;;;;4966420;28;112762;-48
2024/04/02 04:10:26;;;;;;;28.05;6.95;;;10.20;83.20;;;;;;4967289;28;112512;-48
2024/04/02 04:12:52;;;;;;;78.80;9.90;;;9.80;82.80;;;;;;4966891;28;112846;-49
2024/04/02 04:15:17;;;;;;;88.00;10.55;;;9.70;84.00;;;;;;4966213;28;114386;-48
2024/04/02 04:17:43;;;;;;;45.38;8.50;;;9.70;84.70;;;;;;4965568;28;113800;-48
2024/04/02 04:20:10;;;;;;;44.05;9.65;;;9.80;84.70;;;;;;4982628;28;112880;-49
2024/04/02 04:22:35;;;;;;;33.55;10.20;;;9.70;84.40;;;;;;4985165;28;112830;-50
2024/04/02 04:25:03;;;;;;;90.38;10.38;;;9.70;83.80;;;;;;4980885;28;114852;-50
2024/04/02 04:27:33;;;;;;;8.60;7.78;;;9.70;83.40;;;;;;4977670;28;112875;-49
2024/04/02 04:29:59;;;;;;;18.90;8.68;;;9.70;83.40;;;;;;4970513;28;112769;-51
2024/04/02 04:32:25;;;;;;;13.02;8.85;;;9.80;82.70;;;;;;4970054;28;112687;-50
2024/04/02 04:34:51;;;;;;;8.63;7.82;;;9.90;82.40;;;;;;4973232;28;113158;-48
2024/04/02 04:37:17;;;;;;;9.73;8.82;;;9.80;82.50;;;;;;4972437;28;113302;-48
2024/04/02 04:39:43;;;;;;;8.80;8.13;;;9.80;82.90;;;;;;4974893;28;112757;-51
2024/04/02 04:42:08;;;;;;;9.32;8.43;;;9.80;82.40;;;;;;4981784;28;112892;-50
2024/04/02 04:44:34;;;;;;;8.77;8.13;;;9.80;82.60;;;;;;4976917;28;113770;-49
2024/04/02 04:47:00;;;;;;;8.68;8.00;;;9.80;82.70;;;;;;4968565;28;113653;-48
2024/04/02 04:49:26;;;;;;;7.70;7.10;;;9.80;82.50;;;;;;4969322;28;112597;-49
2024/04/02 04:51:51;;;;;;;8.15;7.35;;;9.80;82.20;;;;;;4973379;28;112815;-50
2024/04/02 04:54:17;;;;;;;7.93;6.90;;;9.80;82.00;;;;;;4966607;28;113829;-48
2024/04/02 04:56:43;;;;;;;8.18;7.43;;;9.80;81.80;;;;;;4965777;28;113811;-49
2024/04/02 04:59:08;;;;;;;13.98;7.85;;;9.70;82.60;;;;;;4969330;28;113301;-49
2024/04/02 05:01:34;;;;;;;32.08;8.93;;;9.80;82.40;;;;;;4977738;28;113446;-48
2024/04/02 05:04:00;;;;;;;9.40;8.45;;;9.70;82.30;;;;;;4965002;28;113271;-48
2024/04/02 05:06:25;;;;;;;111.78;12.43;;;9.20;83.30;;;;;;4965413;28;113228;-49
2024/04/02 05:08:51;;;;;;;19.90;10.85;;;9.10;84.20;;;;;;4965990;28;113193;-52
2024/04/02 05:11:17;;;;;;;29.48;12.55;;;9.10;84.80;;;;;;4965453;28;112807;-48
2024/04/02 05:13:42;;;;;;;12.65;11.65;;;9.10;85.00;;;;;;4964562;28;114516;-48
2024/04/02 05:16:08;;;;;;;27.48;14.73;;;9.00;85.20;;;;;;4964939;28;112805;-48
2024/04/02 05:18:34;;;;;;;14.73;13.45;;;8.90;85.80;;;;;;4965613;28;112903;-48
2024/04/02 05:21:00;;;;;;;15.05;13.68;;;8.90;86.30;;;;;;4965674;28;112705;-49
2024/04/02 05:23:29;;;;;;;13.43;12.05;;;9.00;86.50;;;;;;4964572;28;113618;-48
2024/04/02 05:25:58;;;;;;;13.30;11.80;;;9.10;86.30;;;;;;4973188;28;113893;-48
2024/04/02 05:28:24;;;;;;;12.82;11.73;;;9.20;85.90;;;;;;4985114;28;112565;-48
2024/04/02 05:30:49;;;;;;;15.55;13.95;;;9.30;85.70;;;;;;4985580;28;112842;-48
2024/04/02 05:33:15;;;;;;;17.77;15.93;;;9.30;85.80;;;;;;4984271;28;114474;-48
2024/04/02 05:35:41;;;;;;;46.45;18.48;;;9.50;85.80;;;;;;4984336;28;112688;-49
2024/04/02 05:38:07;;;;;;;31.73;18.92;;;9.50;85.90;;;;;;4985349;28;112574;-48
2024/04/02 05:40:33;;;;;;;36.17;18.73;;;9.60;85.70;;;;;;4984956;28;112901;-49
2024/04/02 05:42:58;;;;;;;33.33;17.48;;;9.70;86.00;;;;;;4984165;28;113811;-49
2024/04/02 05:45:24;;;;;;;30.90;17.08;;;9.70;86.00;;;;;;4984593;28;112645;-49
2024/04/02 05:47:50;;;;;;;27.95;17.38;;;9.80;85.70;;;;;;4978809;28;112662;-48
2024/04/02 05:50:17;;;;;;;24.15;17.52;;;9.80;85.80;;;;;;4972305;28;112715;-49
2024/04/02 05:52:43;;;;;;;21.40;15.40;;;9.80;85.80;;;;;;4965653;28;113443;-48
2024/04/02 05:55:09;;;;;;;19.95;15.00;;;9.80;86.30;;;;;;4982360;28;113267;-48
2024/04/02 05:57:35;;;;;;;19.92;16.00;;;9.90;86.00;;;;;;4976274;28;112746;-48
2024/04/02 06:00:01;;;;;;;19.38;15.05;;;9.90;85.90;;;;;;4975208;28;112998;-48
2024/04/02 06:02:27;;;;;;;18.08;14.32;;;9.90;86.00;;;;;;4968651;28;113270;-49
2024/04/02 06:04:53;;;;;;;19.20;14.02;;;10.00;86.10;;;;;;4983735;28;113702;-48
2024/04/02 06:07:18;;;;;;;18.38;13.25;;;10.20;86.00;;;;;;4976517;28;112617;-48
2024/04/02 06:09:44;;;;;;;16.60;12.50;;;10.10;86.00;;;;;;4982831;28;112918;-48
2024/04/02 06:12:10;;;;;;;14.02;11.13;;;10.20;86.40;;;;;;4975362;28;113214;-49
2024/04/02 06:14:36;;;;;;;15.30;11.60;;;10.20;86.60;;;;;;4991929;28;114286;-49
2024/04/02 06:17:02;;;;;;;13.10;11.02;;;10.40;86.70;;;;;;4971040;28;112687;-49
2024/04/02 06:19:30;;;;;;;14.27;11.68;;;10.60;86.40;;;;;;4975976;28;113712;-52
2024/04/02 06:21:56;;;;;;;28.45;19.58;;;10.60;86.10;;;;;;4971431;28;114358;-49
2024/04/02 06:24:22;;;;;;;22.05;15.07;;;10.70;85.80;;;;;;4971150;28;112763;-49
2024/04/02 06:26:48;;;;;;;15.10;11.30;;;10.90;85.70;;;;;;4981603;28;112663;-52
2024/04/02 06:29:13;;;;;;;10.20;9.20;;;11.10;84.90;;;;;;4976235;28;112693;-49
2024/04/02 06:31:39;;;;;;;10.90;9.85;;;11.10;84.80;;;;;;4987813;28;113370;-49
2024/04/02 06:34:05;;;;;;;11.05;9.60;;;11.40;84.70;;;;;;4987832;28;114059;-50
2024/04/02 06:36:30;;;;;;;10.80;9.55;;;11.40;84.60;;;;;;4988371;28;112717;-50
2024/04/02 06:38:56;;;;;;;12.35;9.88;;;11.60;84.40;;;;;;4969921;28;112762;-50
2024/04/02 06:41:22;;;;;;;11.35;9.63;;;11.50;84.60;;;;;;4977678;28;115243;-49
2024/04/02 06:43:50;;;;;;;11.95;9.98;;;11.80;84.50;;;;;;4987566;28;113902;-50
2024/04/02 06:46:15;;;;;;;13.48;9.35;;;12.00;83.80;;;;;;4987666;28;112843;-49
2024/04/02 06:48:41;;;;;;;11.52;9.98;;;12.20;83.40;;;;;;4987905;28;113149;-50
2024/04/02 06:51:13;;;;;;;14.73;9.48;;;12.30;83.30;;;;;;4971934;28;113579;-49
2024/04/02 06:53:39;;;;;;;;;;;12.40;83.10;;;;;;4977470;28;114309;-49
2024/04/02 06:56:06;;;;;;;12.93;10.48;;;12.30;82.80;;;;;;4972053;28;112997;-50
2024/04/02 06:58:32;;;;;;;13.27;9.98;;;12.30;83.10;;;;;;4978872;28;114196;-50
2024/04/02 07:00:58;;;;;;;12.75;9.98;;;12.60;83.10;;;;;;4974961;28;113214;-50
2024/04/02 07:03:24;;;;;;;11.77;9.80;;;12.80;82.40;;;;;;4972949;28;114160;-49
2024/04/02 07:05:52;;;;;;;10.15;9.10;;;12.80;82.40;;;;;;4980128;28;113114;-50
2024/04/02 07:08:21;;;;;;;14.40;9.23;;;12.90;81.80;;;;;;4986176;28;113153;-50
2024/04/02 07:10:59;;;;;;;12.07;8.75;;;12.90;81.60;;;;;;4982565;28;113722;-50
2024/04/02 07:13:28;;;;;;;11.18;8.75;;;12.90;81.80;;;;;;4985246;28;113801;-49
2024/04/02 07:15:54;;;;;;;9.10;8.20;;;12.90;81.60;;;;;;4985913;28;112721;-50
2024/04/02 07:18:20;;;;;;;12.45;8.10;;;12.80;82.00;;;;;;4981299;28;112947;-50
2024/04/02 07:20:56;;;;;;;10.13;7.35;;;13.00;81.50;;;;;;4968867;28;114330;-49
2024/04/02 07:23:22;;;;;;;7.97;7.18;;;13.30;80.60;;;;;;4980651;28;113849;-54
2024/04/02 07:25:47;;;;;;;10.95;6.82;;;13.40;80.40;;;;;;4970585;28;113630;-49
2024/04/02 07:28:13;;;;;;;11.18;6.15;;;13.50;80.00;;;;;;4986131;28;112607;-50
2024/04/02 07:30:39;;;;;;;6.95;6.22;;;13.80;79.60;;;;;;4986830;28;116310;-50
2024/04/02 07:33:04;;;;;;;7.60;6.03;;;13.90;78.50;;;;;;4986062;28;113761;-50
2024/04/02 07:35:30;;;;;;;8.55;6.03;;;13.90;78.60;;;;;;4983666;28;113015;-50
2024/04/02 07:37:56;;;;;;;7.40;6.22;;;14.00;77.60;;;;;;4973316;28;112699;-50
2024/04/02 07:40:21;;;;;;;7.90;6.47;;;14.00;77.10;;;;;;4972141;28;114738;-50
2024/04/02 07:42:47;;;;;;;8.48;6.70;;;14.10;77.00;;;;;;4972232;28;113770;-50
2024/04/02 07:45:15;;;;;;;9.02;6.28;;;14.20;76.70;;;;;;4970897;28;112600;-49
2024/04/02 07:47:42;;;;;;;9.10;6.85;;;14.30;77.20;;;;;;4979956;28;113088;-50
2024/04/02 07:50:08;;;;;;;7.38;6.55;;;14.40;77.20;;;;;;4987190;28;114683;-50
2024/04/02 07:52:34;;;;;;;8.18;6.85;;;14.40;77.50;;;;;;4982232;28;113188;-52
2024/04/02 07:55:00;;;;;;;11.27;7.63;;;14.30;77.50;;;;;;4982142;28;112498;-50
2024/04/02 07:57:25;;;;;;;10.27;7.22;;;14.40;77.70;;;;;;4980315;28;112786;-50
2024/04/02 07:59:51;;;;;;;10.40;8.88;;;14.40;77.80;;;;;;4981400;28;113285;-50
2024/04/02 08:02:17;;;;;;;11.30;10.07;;;14.50;77.60;;;;;;4980997;28;113089;-54
2024/04/02 08:04:43;;;;;;;10.07;8.38;;;14.80;77.70;;;;;;4970682;28;113105;-50
2024/04/02 08:07:10;;;;;;;9.27;7.75;;;15.10;76.90;;;;;;4987026;28;112983;-50
2024/04/02 08:09:36;;;;;;;8.60;7.40;;;15.20;76.10;;;;;;4971381;28;115335;-50
2024/04/02 08:12:02;;;;;;;9.07;6.65;;;15.10;76.50;;;;;;4981509;28;114574;-51
2024/04/02 08:14:31;;;;;;;7.22;5.82;;;14.80;77.10;;;;;;4978384;28;112813;-50
2024/04/02 08:16:58;;;;;;;8.55;5.35;;;14.90;77.20;;;;;;4979358;28;113015;-50
2024/04/02 08:19:24;;;;;;;9.52;4.97;;;15.20;76.60;;;;;;4978565;28;114513;-50
2024/04/02 08:21:50;;;;;;;6.72;5.20;;;15.40;75.20;;;;;;4977796;28;112809;-50
2024/04/02 08:24:16;;;;;;;9.95;4.93;;;15.60;75.30;;;;;;4980388;28;113116;-50
2024/04/02 08:26:41;;;;;;;6.75;5.05;;;15.40;75.10;;;;;;4968676;28;112908;-51
2024/04/02 08:29:07;;;;;;;7.68;4.38;;;15.50;75.30;;;;;;4965319;28;113144;-51
2024/04/02 08:31:33;;;;;;;6.32;4.30;;;15.50;74.40;;;;;;4966920;28;112674;-55
2024/04/02 08:33:58;;;;;;;5.82;3.70;;;15.60;73.90;;;;;;4967969;28;112899;-53
2024/04/02 08:36:24;;;;;;;4.70;3.85;;;15.60;73.10;;;;;;4967179;28;113042;-51
2024/04/02 08:38:50;;;;;;;6.50;3.90;;;15.50;73.70;;;;;;4982380;28;115098;-50
2024/04/02 08:41:18;;;;;;;8.23;3.75;;;15.50;73.50;;;;;;4970948;28;112954;-51
2024/04/02 08:43:45;;;;;;;4.82;3.50;;;15.50;73.40;;;;;;4970654;28;112776;-53
2024/04/02 08:46:12;;;;;;;5.60;2.97;;;15.50;73.70;;;;;;4974866;28;112598;-49
2024/04/02 08:48:39;;;;;;;5.05;3.10;;;15.70;73.30;;;;;;4978586;28;114233;-50
2024/04/02 08:51:05;;;;;;;6.35;2.83;;;15.80;71.90;;;;;;4973082;28;112620;-50
2024/04/02 08:53:34;;;;;;;7.32;2.90;;;15.80;71.60;;;;;;4980940;28;113164;-52
2024/04/02 08:56:00;;;;;;;6.07;2.60;;;16.40;71.60;;;;;;4983349;28;112825;-49
2024/04/02 08:58:27;;;;;;;3.90;2.38;;;17.00;69.80;;;;;;4983933;28;115180;-50
2024/04/02 09:00:53;;;;;;;4.25;2.50;;;17.60;68.40;;;;;;4980298;28;112948;-50
2024/04/02 09:03:20;;;;;;;3.67;2.38;;;17.80;65.80;;;;;;4969535;28;112566;-49
2024/04/02 09:05:45;;;;;;;4.82;2.20;;;17.90;67.40;;;;;;4967838;28;112914;-49
2024/04/02 09:08:14;;;;;;;4.38;2.50;;;17.80;65.90;;;;;;4971332;28;114846;-49
2024/04/02 09:10:41;;;;;;;5.63;2.40;;;18.00;65.00;;;;;;4977187;28;112837;-49
2024/04/02 09:13:07;;;;;;;5.88;2.25;;;17.90;63.40;;;;;;4972138;28;112819;-49
2024/04/02 09:15:35;;;;;;;2.90;2.30;;;17.90;64.10;;;;;;4970267;28;112693;-49
2024/04/02 09:18:01;;;;;;;6.60;2.38;;;17.90;62.80;;;;;;4970728;28;113230;-49
2024/04/02 09:20:26;;;;;;;3.92;2.10;;;17.60;62.90;;;;;;4968179;28;112894;-50
2024/04/02 09:22:52;;;;;;;5.85;2.45;;;17.60;64.40;;;;;;4975546;28;113058;-49
2024/04/02 09:25:21;;;;;;;4.03;2.10;;;17.80;62.50;;;;;;4969510;28;112656;-53
2024/04/02 09:27:48;;;;;;;2.13;1.65;;;18.10;62.20;;;;;;4975203;28;114532;-49
2024/04/02 09:30:14;;;;;;;3.38;1.80;;;18.40;60.80;;;;;;4984782;28;114289;-52
2024/04/02 09:32:42;;;;;;;2.78;1.60;;;18.90;61.30;;;;;;4986188;28;112472;-50
2024/04/02 09:35:23;;;;;;;3.75;1.70;;;19.40;59.70;;;;;;4986008;28;113119;-49
2024/04/02 09:37:50;;;;;;;3.88;1.55;;;19.50;58.00;;;;;;4982503;28;114469;-49
2024/04/02 09:40:17;;;;;;;7.72;1.70;;;19.50;56.90;;;;;;4973450;28;112772;-49
2024/04/02 09:42:47;;;;;;;3.88;1.80;;;19.70;59.40;;;;;;4984759;28;113020;-49
2024/04/02 09:45:13;;;;;;;1.92;1.58;;;20.00;57.90;;;;;;4980380;28;113064;-49
2024/04/02 09:47:42;;;;;;;2.47;1.85;;;20.40;57.70;;;;;;4979474;28;113157;-50
2024/04/02 09:50:08;;;;;;;3.58;2.20;;;21.10;56.30;;;;;;4979004;28;113066;-51
2024/04/02 09:52:35;;;;;;;4.55;2.05;;;20.80;55.00;;;;;;4975561;28;112696;-50
2024/04/02 09:55:02;;;;;;;5.55;3.50;;;20.10;57.40;;;;;;4975895;28;112687;-49
2024/04/02 09:57:29;;;;;;;4.18;2.17;;;19.70;57.60;;;;;;4976487;28;114225;-49
2024/04/02 09:59:56;;;;;;;5.65;2.13;;;19.50;58.40;;;;;;4968268;28;112784;-50
2024/04/02 10:02:26;;;;;;;4.78;2.03;;;19.30;58.10;;;;;;4974180;28;112883;-51
2024/04/02 10:04:53;;;;;;;4.63;2.13;;;19.60;58.30;;;;;;4981651;28;112744;-49
2024/04/02 10:07:23;;;;;;;3.67;2.17;;;20.10;55.60;;;;;;4976366;28;113329;-50
2024/04/02 10:10:00;;;;;;;3.45;1.75;;;20.00;55.50;;;;;;4968860;28;113874;-51
2024/04/02 10:12:33;;;;;;;7.47;1.77;;;20.10;54.40;;;;;;4972268;28;112687;-50
2024/04/02 10:15:10;;;;;;;4.45;1.38;;;20.60;55.60;;;;;;4970001;28;113447;-52
2024/04/02 10:17:37;;;;;;;6.00;1.50;;;20.90;53.50;;;;;;4971348;28;114800;-49
2024/04/02 10:20:16;;;;;;;2.33;1.30;;;21.20;54.20;;;;;;4968426;28;114308;-50
2024/04/02 10:22:43;;;;;;;2.85;1.80;;;21.00;54.30;;;;;;4972731;28;112872;-50
2024/04/02 10:25:13;;;;;;;1.75;1.30;;;20.90;53.90;;;;;;4969876;28;112796;-53
2024/04/02 10:27:47;;;;;;;4.40;1.60;;;21.20;53.60;;;;;;4977150;28;113102;-50
2024/04/02 10:30:22;;;;;;;2.20;1.42;;;21.20;52.60;;;;;;4978113;28;113855;-47
2024/04/02 10:32:49;;;;;;;3.90;1.05;;;22.30;50.40;;;;;;4976696;28;113108;-49
2024/04/02 10:35:18;;;;;;;1.55;1.02;;;24.70;46.00;;;;;;4976518;28;112961;-49
2024/04/02 10:37:45;;;;;;;3.00;0.93;;;25.80;41.10;;;;;;4979200;28;114714;-51
2024/04/02 10:40:11;;;;;;;1.40;0.90;;;25.70;40.90;;;;;;4971396;28;112773;-51
2024/04/02 10:42:38;;;;;;;1.33;1.13;;;27.40;37.40;;;;;;4973780;28;112778;-51
2024/04/02 10:45:07;;;;;;;2.40;1.50;;;31.40;33.30;;;;;;4973931;28;112859;-52
2024/04/02 10:47:33;;;;;;;2.28;1.25;;;34.90;27.80;;;;;;4970258;28;113903;-51
2024/04/02 10:49:59;;;;;;;1.67;1.10;;;37.40;25.10;;;;;;4967935;28;112905;-51
2024/04/02 10:52:24;;;;;;;1.48;1.02;;;38.30;24.20;;;;;;4981131;28;112993;-52
2024/04/02 10:54:50;;;;;;;3.50;1.25;;;40.40;23.20;;;;;;4969315;28;112910;-52
2024/04/02 10:57:16;;;;;;;1.95;1.27;;;41.30;21.50;;;;;;4967522;28;114591;-52
2024/04/02 10:59:45;;;;;;;1.80;1.10;;;42.20;20.60;;;;;;4967716;28;114266;-54
2024/04/02 11:02:18;;;;;;;1.60;1.13;;;42.70;21.10;;;;;;4968792;28;113043;-52
2024/04/02 11:04:45;;;;;;;2.65;1.33;;;42.00;20.30;;;;;;4969303;28;112489;-53
2024/04/02 11:07:14;;;;;;;1.75;1.10;;;41.40;21.20;;;;;;4968878;28;113763;-52
2024/04/02 11:09:40;;;;;;;2.25;1.30;;;41.50;20.80;;;;;;4967598;28;112943;-53
2024/04/02 11:12:09;;;;;;;3.03;1.23;;;40.90;20.80;;;;;;4986957;28;112704;-52
2024/04/02 11:14:38;;;;;;;1.63;1.17;;;41.10;21.40;;;;;;4972419;28;113328;-52
2024/04/02 11:17:05;;;;;;;2.55;1.15;;;43.00;20.00;;;;;;4967814;28;112701;-50
2024/04/02 11:19:31;;;;;;;1.88;1.30;;;44.10;19.80;;;;;;4967328;28;113786;-52
2024/04/02 11:27:29;;;;;;;1.95;1.10;;;45.10;19.00;;;;;;4976046;28;113137;-53
2024/04/02 11:29:55;;;;;;;2.50;1.30;;;45.20;18.60;;;;;;4987340;28;114056;-53
2024/04/02 11:32:21;;;;;;;2.25;1.10;;;45.70;19.00;;;;;;4988064;28;112994;-51
2024/04/02 11:35:03;;;;;;;1.25;1.02;;;46.20;18.30;;;;;;4995837;28;112997;-51
2024/04/02 11:37:30;;;;;;;3.50;1.30;;;46.30;19.00;;;;;;4967451;28;114085;-51
2024/04/02 11:39:57;;;;;;;1.20;0.95;;;46.00;18.70;;;;;;4967169;28;113736;-51
2024/04/02 11:42:23;;;;;;;2.80;1.20;;;44.70;19.80;;;;;;4967891;28;112735;-51
2024/04/02 11:45:00;;;;;;;3.00;1.42;;;43.70;20.10;;;;;;4980613;28;112881;-52
2024/04/02 11:47:26;;;;;;;2.65;1.20;;;36.50;24.80;;;;;;4970579;28;114360;-53
2024/04/02 11:49:52;;;;;;;2.40;1.25;;;31.30;30.60;;;;;;4971741;28;114763;-53
2024/04/02 11:52:17;;;;;;;3.47;1.00;;;35.50;26.80;;;;;;4971751;28;114906;-52
2024/04/02 11:54:43;;;;;;;1.75;1.10;;;39.10;23.60;;;;;;4968040;28;112670;-52
2024/04/02 12:00:13;;;;;;;2.22;1.52;;;38.60;23.40;;;;;;4967206;28;112914;-52
2024/04/02 12:02:46;;;;;;;1.52;1.20;;;40.10;22.30;;;;;;4967196;28;114984;-53
2024/04/02 12:05:12;;;;;;;2.67;1.20;;;40.20;22.10;;;;;;4988839;28;112728;-53
2024/04/02 12:07:39;;;;;;;2.53;1.00;;;42.40;20.70;;;;;;4974239;28;114463;-51
2024/04/02 12:10:06;;;;;;;1.52;1.00;;;44.30;19.60;;;;;;4977723;28;113039;-52
2024/04/02 12:12:33;;;;;;;1.70;1.15;;;45.20;18.80;;;;;;4979671;28;112992;-52
2024/04/02 12:15:00;;;;;;;2.17;1.05;;;46.10;18.90;;;;;;4973540;28;113508;-52
2024/04/02 12:17:26;;;;;;;3.58;1.17;;;39.80;22.50;;;;;;4971691;28;114401;-56
2024/04/02 12:19:55;;;;;;;2.00;1.00;;;41.70;21.30;;;;;;4975780;28;112961;-53
2024/04/02 12:22:21;;;;;;;2.67;1.05;;;44.00;18.80;;;;;;4981966;28;113612;-53
2024/04/02 12:24:47;;;;;;;2.10;1.10;;;45.60;19.00;;;;;;4978076;28;112796;-53
2024/04/02 12:27:13;;;;;;;1.88;1.25;;;43.90;19.00;;;;;;4966039;28;113167;-51
2024/04/02 12:29:39;;;;;;;1.65;1.10;;;36.40;24.50;;;;;;4966085;28;112624;-53
2024/04/02 12:32:07;;;;;;;1.73;1.30;;;36.40;24.60;;;;;;4966769;28;112602;-54
2024/04/02 12:34:34;;;;;;;1.83;0.90;;;41.70;22.00;;;;;;4977151;28;113002;-52
2024/04/02 12:37:00;;;;;;;1.83;1.13;;;43.50;19.40;;;;;;4969616;28;113193;-51